.
WxDataArchive / Data Records for 2015-06-04
2015-06-03 June 2015 2015-06-05

Data Records for Thursday, 04 June 2015

Time	Temp	Chill	HIndex	Humid	Dewpt	 Wind 	HiWind	WindDir	Rain 	Barom
-----	----	-----	------	-----	-----	------	------	-------	-----	-----
00:00	60.9	60.9	60.9	89	57.6	0	0	---	0.00	29.995 
00:05	60.7	60.7	60.7	89	57.4	0	0	---	0.00	29.995 
00:10	60.5	60.5	60.5	89	57.2	0	0	---	0.00	29.995 
00:15	60.5	60.5	60.5	89	57.2	0	0	---	0.00	29.992 
00:20	60.2	60.2	60.2	89	56.9	0	0	---	0.00	29.992 
00:25	60.1	60.1	60.1	89	56.8	0	0	---	0.00	29.992 
00:30	59.9	59.9	59.9	90	57.0	0	0	---	0.00	29.996 
00:35	59.8	59.8	59.8	90	56.9	0	0	---	0.00	29.996 
00:40	59.6	59.6	59.6	90	56.7	0	0	---	0.00	29.996 
00:45	59.5	59.5	59.5	90	56.6	0	0	---	0.00	29.999 
00:50	59.3	59.3	59.3	90	56.4	0	0	---	0.00	29.999 
00:55	59.3	59.3	59.3	91	56.7	0	0	---	0.00	29.999 
01:00	59.3	59.3	59.3	91	56.7	0	0	---	0.00	29.997 
01:05	59.3	59.3	59.3	91	56.7	0	0	---	0.00	29.997 
01:10	59.3	59.3	59.3	91	56.7	0	0	---	0.00	29.997 
01:15	59.3	59.3	59.3	91	56.7	0	0	---	0.00	29.996 
01:20	59.2	59.2	59.2	91	56.6	0	0	---	0.00	29.996 
01:25	59.2	59.2	59.2	92	56.9	0	0	---	0.00	29.996 
01:30	59.3	59.3	59.3	92	57.0	0	0	---	0.00	29.998 
01:35	59.3	59.3	59.3	92	57.0	0	0	---	0.00	29.998 
01:40	59.5	59.5	59.5	92	57.2	0	0	---	0.00	29.998 
01:45	59.6	59.6	59.6	92	57.3	0	0	---	0.00	29.998 
01:50	59.6	59.6	59.6	92	57.3	0	0	---	0.00	29.998 
01:55	59.9	59.9	59.9	92	57.6	0	0	---	0.00	29.998 
02:00	60.1	60.1	60.1	92	57.8	0	0	---	0.00	29.997 
02:05	60.2	60.2	60.2	92	57.9	0	1	90	0.00	29.997 
02:10	60.4	60.4	60.4	92	58.1	0	0	---	0.00	29.997 
02:15	60.5	60.5	60.5	92	58.2	0	0	---	0.00	29.995 
02:20	60.5	60.5	60.5	91	57.9	0	0	---	0.00	29.995 
02:25	60.5	60.5	60.5	91	57.9	0	1	90	0.00	29.995 
02:30	60.5	60.5	60.5	91	57.9	0	0	---	0.00	29.996 
02:35	60.4	60.4	60.4	90	57.4	0	0	---	0.00	29.996 
02:40	60.2	60.2	60.2	90	57.3	0	0	---	0.00	29.996 
02:45	60.1	60.1	60.1	90	57.2	0	0	---	0.00	29.994 
02:50	59.9	59.9	59.9	90	57.0	0	0	---	0.00	29.994 
02:55	59.8	59.8	59.8	90	56.9	0	0	---	0.00	29.994 
03:00	59.6	59.6	59.6	90	56.7	0	0	---	0.00	29.993 
03:05	59.6	59.6	59.6	89	56.4	0	0	---	0.00	29.993 
03:10	59.5	59.5	59.5	89	56.3	0	0	---	0.00	29.993 
03:15	59.3	59.3	59.3	90	56.4	0	0	---	0.00	29.995 
03:20	59.2	59.2	59.2	89	56.0	0	0	---	0.00	29.995 
03:25	59.0	59.0	59.0	90	56.1	0	0	---	0.00	29.995 
03:30	58.9	58.9	58.9	90	56.0	0	0	---	0.00	29.996 
03:35	58.7	58.7	58.7	90	55.8	0	0	---	0.00	29.996 
03:40	58.7	58.7	58.7	90	55.8	0	1	90	0.00	29.996 
03:45	58.6	58.6	58.6	90	55.7	0	1	90	0.00	29.995 
03:50	58.4	58.4	58.4	90	55.5	0	0	---	0.00	29.995 
03:55	58.3	58.3	58.3	90	55.4	0	0	---	0.00	29.995 
04:00	58.1	58.1	58.1	90	55.2	0	0	---	0.00	29.997 
04:05	58.0	58.0	58.0	90	55.1	0	0	---	0.00	29.997 
04:10	57.8	57.8	57.8	90	54.9	0	0	---	0.00	29.997 
04:15	57.8	57.8	57.8	90	54.9	0	0	---	0.00	30.000 
04:20	57.6	57.6	57.6	90	54.7	0	0	---	0.00	30.000 
04:25	57.5	57.5	57.5	91	54.9	0	0	---	0.00	30.000 
04:30	57.5	57.5	57.5	91	54.9	0	0	---	0.00	30.007 
04:35	57.5	57.5	57.5	91	54.9	0	0	---	0.00	30.007 
04:40	57.6	57.6	57.6	91	55.0	0	0	---	0.00	30.007 
04:45	57.8	57.8	57.8	92	55.5	0	0	---	0.00	30.008 
04:50	58.0	58.0	58.0	92	55.7	0	0	---	0.00	30.008 
04:55	58.1	58.1	58.1	92	55.8	0	0	---	0.00	30.008 
05:00	58.3	58.3	58.3	92	56.0	0	0	---	0.00	30.008 
05:05	58.3	58.3	58.3	92	56.0	0	0	---	0.00	30.008 
05:10	58.4	58.4	58.4	92	56.1	0	1	90	0.00	30.008 
05:15	58.6	58.6	58.6	92	56.3	0	1	90	0.00	30.008 
05:20	58.6	58.6	58.6	91	56.0	0	1	90	0.00	30.008 
05:25	58.6	58.6	58.6	91	56.0	0	0	---	0.00	30.008 
05:30	58.7	58.7	58.7	91	56.1	0	0	---	0.00	30.006 
05:35	58.7	58.7	58.7	91	56.1	0	0	---	0.00	30.006 
05:40	58.7	58.7	58.7	91	56.1	0	0	---	0.00	30.006 
05:45	58.7	58.7	58.7	91	56.1	0	0	---	0.00	30.009 
05:50	58.9	58.9	58.9	91	56.3	0	0	---	0.00	30.009 
05:55	58.9	58.9	58.9	91	56.3	0	0	---	0.00	30.009 
06:00	58.9	58.9	58.9	91	56.3	0	0	---	0.00	30.009 
06:05	58.9	58.9	58.9	91	56.3	0	0	---	0.00	30.009 
06:10	58.9	58.9	58.9	91	56.3	0	0	---	0.00	30.009 
06:15	59.0	59.0	59.0	91	56.4	0	0	---	0.00	30.009 
06:20	59.0	59.0	59.0	91	56.4	0	0	---	0.00	30.009 
06:25	59.0	59.0	59.0	90	56.1	0	0	---	0.00	30.009 
06:30	59.0	59.0	59.0	90	56.1	0	0	---	0.00	30.010 
06:35	59.0	59.0	59.0	90	56.1	0	0	---	0.00	30.010 
06:40	59.0	59.0	59.0	90	56.1	0	0	---	0.00	30.010 
06:45	59.2	59.2	59.2	90	56.3	0	0	---	0.00	30.014 
06:50	59.2	59.2	59.2	90	56.3	0	0	---	0.00	30.014 
06:55	59.3	59.3	59.3	90	56.4	0	0	---	0.00	30.014 
07:00	59.3	59.3	59.3	90	56.4	0	0	---	0.00	30.012 
07:05	59.3	59.3	59.3	90	56.4	0	0	---	0.00	30.012 
07:10	59.5	59.5	59.5	90	56.6	0	0	---	0.00	30.012 
07:15	59.6	59.6	59.6	90	56.7	0	0	---	0.00	30.022 
07:20	59.8	59.8	59.8	90	56.9	0	0	---	0.00	30.022 
07:25	59.9	59.9	59.9	90	57.0	0	0	---	0.00	30.022 
07:30	60.1	60.1	60.1	89	56.8	0	0	---	0.00	30.024 
07:35	60.2	60.2	60.2	89	56.9	0	0	---	0.00	30.024 
07:40	60.4	60.4	60.4	89	57.1	0	0	---	0.00	30.024 
07:45	60.5	60.5	60.5	89	57.2	0	0	---	0.00	30.025 
07:50	60.7	60.7	60.7	88	57.1	0	0	---	0.00	30.025 
07:55	61.2	61.2	61.2	88	57.6	0	0	---	0.00	30.025 
08:00	62.1	62.1	62.1	88	58.5	0	0	---	0.00	30.026 
08:05	62.9	62.9	62.9	86	58.6	0	0	---	0.00	30.026 
08:10	63.1	63.1	63.1	85	58.5	0	0	---	0.00	30.026 
08:15	63.2	63.2	63.2	84	58.3	0	0	---	0.00	30.029 
08:20	63.7	63.7	63.7	84	58.8	0	0	---	0.00	30.029 
08:25	63.9	63.9	63.9	83	58.6	0	0	---	0.00	30.029 
08:30	64.3	64.3	64.3	81	58.3	0	1	90	0.00	30.038 
08:35	65.0	65.0	65.0	81	59.0	0	0	---	0.00	30.038 
08:40	65.8	65.8	65.8	80	59.5	0	0	---	0.00	30.038 
08:45	66.6	66.6	66.6	78	59.5	0	1	90	0.00	30.027 
08:50	66.9	66.9	66.9	77	59.4	0	1	68	0.00	30.027 
08:55	67.6	67.6	67.6	76	59.8	0	0	---	0.00	30.027 
09:00	67.9	67.9	67.9	76	60.0	0	0	---	0.00	30.024 
09:05	67.9	67.9	67.9	75	59.7	0	1	68	0.00	30.024 
09:10	67.6	67.6	67.6	75	59.4	0	2	68	0.00	30.024 
09:15	67.4	67.4	67.4	75	59.2	0	2	68	0.00	30.034 
09:20	67.8	67.8	67.8	76	59.9	0	1	68	0.00	30.034 
09:25	67.9	67.9	67.9	76	60.0	0	2	68	0.00	30.034 
09:30	68.3	68.3	68.3	75	60.1	0	2	68	0.00	30.026 
09:35	68.6	68.6	68.6	74	60.0	0	2	68	0.00	30.026 
09:40	68.8	68.8	68.8	74	60.2	0	2	68	0.00	30.026 
09:45	69.1	69.1	69.1	73	60.1	0	2	68	0.00	30.025 
09:50	69.6	69.6	69.6	73	60.6	0	1	68	0.00	30.025 
09:55	69.9	69.9	69.9	72	60.4	0	2	68	0.00	30.025 
10:00	70.3	70.3	70.3	72	60.8	0	2	68	0.00	30.021 
10:05	70.8	70.8	70.8	71	60.9	0	1	68	0.00	30.021 
10:10	71.1	71.1	71.1	68	60.0	0	2	68	0.00	30.021 
10:15	71.1	71.1	71.1	68	60.0	0	1	68	0.00	30.021 
10:20	71.8	71.8	71.8	66	59.8	0	2	68	0.00	30.021 
10:25	72.7	72.7	72.7	66	60.7	0	1	68	0.00	30.021 
10:30	73.7	73.7	73.7	62	59.9	0	2	68	0.00	30.008 
10:35	73.9	73.9	73.9	60	59.1	1	3	68	0.00	30.008 
10:40	73.7	73.7	73.7	64	60.7	0	2	68	0.00	30.008 
10:45	73.9	73.9	73.9	61	59.6	1	2	68	0.00	30.010 
10:50	74.6	74.6	74.6	62	60.7	0	1	68	0.00	30.010 
10:55	74.9	74.9	74.9	59	59.6	0	2	68	0.00	30.010 
11:00	74.9	74.9	74.9	58	59.1	0	1	68	0.00	30.005 
11:05	74.9	74.9	74.9	60	60.1	0	1	68	0.00	30.005 
11:10	74.9	74.9	74.9	56	58.1	0	1	68	0.00	30.005 
11:15	74.6	74.6	74.6	58	58.8	0	1	68	0.00	30.006 
11:20	75.1	75.1	77.5	58	59.3	0	3	68	0.00	30.006 
11:25	75.3	75.3	77.6	58	59.5	0	2	68	0.00	30.006 
11:30	75.4	75.4	77.6	60	60.5	0	1	68	0.00	30.006 
11:35	75.8	75.8	77.9	58	59.9	0	1	68	0.00	30.006 
11:40	75.8	75.8	77.9	56	59.0	0	1	68	0.00	30.006 
11:45	75.4	75.4	77.8	54	57.6	1	3	68	0.00	30.010 
11:50	75.1	75.1	77.6	56	58.3	0	1	68	0.00	30.010 
11:55	74.9	74.9	74.9	56	58.1	0	3	68	0.00	30.010 
12:00	74.9	74.9	74.9	57	58.6	0	1	68	0.00	30.007 
12:05	74.9	74.9	74.9	58	59.1	0	1	68	0.00	30.007 
12:10	74.7	74.7	74.7	57	58.4	0	1	68	0.00	30.007 
12:15	74.6	74.6	74.6	56	57.8	0	1	68	0.00	30.010 
12:20	74.2	74.2	74.2	57	58.0	0	1	68	0.00	30.010 
12:25	74.7	74.7	74.7	59	59.4	0	1	68	0.00	30.010 
12:30	75.1	75.1	77.5	57	58.8	0	1	68	0.00	30.020 
12:35	75.1	75.1	77.6	56	58.3	0	2	68	0.00	30.020 
12:40	75.3	75.3	77.7	55	58.0	0	3	68	0.00	30.020 
12:45	75.3	75.3	77.7	55	58.0	0	2	45	0.00	30.021 
12:50	75.1	75.1	77.6	56	58.3	0	1	45	0.00	30.021 
12:55	75.1	75.1	77.6	56	58.3	0	2	45	0.00	30.021 
13:00	75.3	75.3	77.6	57	59.0	0	2	45	0.00	30.017 
13:05	75.8	75.8	77.9	57	59.5	0	2	45	0.00	30.017 
13:10	76.0	76.0	78.0	58	60.1	0	1	45	0.00	30.017 
13:15	76.5	76.5	78.4	56	59.6	0	2	45	0.00	30.017 
13:20	77.0	77.0	78.7	52	58.0	1	4	45	0.00	30.017 
13:25	76.7	76.7	78.5	54	58.8	0	3	22	0.00	30.017 
13:30	76.7	76.7	78.5	55	59.3	0	1	22	0.00	30.009 
13:35	76.8	76.8	78.6	54	58.9	1	2	45	0.00	30.009 
13:40	77.4	77.4	79.1	59	61.9	0	2	45	0.00	30.009 
13:45	77.6	77.6	79.2	55	60.1	0	2	45	0.00	30.001 
13:50	77.7	77.7	79.2	54	59.7	1	2	22	0.00	30.001 
13:55	77.6	77.6	79.0	52	58.6	0	2	22	0.00	30.001 
14:00	77.4	77.4	78.9	53	58.9	0	1	22	0.00	30.008 
14:05	77.7	77.7	79.2	54	59.7	0	2	22	0.00	30.008 
14:10	78.1	78.1	79.5	53	59.6	1	3	22	0.00	30.008 
14:15	78.5	78.5	79.8	53	59.9	1	4	315	0.00	30.004 
14:20	78.1	78.1	79.3	50	57.9	1	2	315	0.00	30.004 
14:25	77.4	77.4	78.9	53	58.9	0	3	315	0.00	30.004 
14:30	77.2	77.2	78.8	53	58.7	1	4	112	0.00	30.004 
14:35	77.6	77.6	79.0	50	57.5	0	3	112	0.00	30.004 
14:40	77.4	77.4	78.8	50	57.3	0	1	112	0.00	30.004 
14:45	77.4	77.4	78.9	51	57.8	0	1	112	0.00	30.002 
14:50	77.4	77.4	78.9	51	57.8	0	2	112	0.00	30.002 
14:55	77.6	77.6	79.1	53	59.1	0	2	0	0.00	30.002 
15:00	77.7	77.7	79.1	51	58.1	0	2	0	0.00	30.001 
15:05	77.7	77.7	79.1	51	58.1	1	2	0	0.00	30.001 
15:10	78.3	78.3	79.5	51	58.7	0	2	0	0.00	30.001 
15:15	78.8	78.8	79.9	52	59.7	0	3	0	0.00	30.000 
15:20	79.2	79.2	80.1	50	58.9	0	3	90	0.00	30.000 
15:25	78.8	78.8	79.9	51	59.1	0	1	112	0.00	30.000 
15:30	79.0	79.0	80.0	51	59.3	0	2	180	0.00	29.987 
15:35	79.2	79.2	80.1	50	58.9	1	3	90	0.00	29.987 
15:40	78.6	78.6	79.9	54	60.5	0	2	90	0.00	29.987 
15:45	78.6	78.6	79.8	53	60.0	0	1	90	0.00	29.990 
15:50	78.8	78.8	79.9	51	59.1	0	1	90	0.00	29.990 
15:55	79.0	79.0	80.1	52	59.8	0	2	90	0.00	29.990 
16:00	79.4	79.4	80.3	50	59.1	0	2	90	0.00	29.994 
16:05	79.8	79.8	80.6	50	59.5	0	1	90	0.00	29.994 
16:10	80.1	80.1	80.9	50	59.8	1	3	90	0.00	29.994 
16:15	80.1	80.1	80.6	47	58.0	1	2	90	0.00	29.990 
16:20	79.8	79.8	80.6	50	59.5	1	2	90	0.00	29.990 
16:25	79.9	79.9	80.7	50	59.6	0	1	90	0.00	29.990 
16:30	80.3	80.3	81.0	49	59.4	0	2	90	0.00	29.987 
16:35	80.5	80.5	81.0	48	59.0	0	1	90	0.00	29.987 
16:40	80.3	80.3	80.9	48	58.8	0	3	90	0.00	29.987 
16:45	79.9	79.9	80.6	49	59.0	0	2	90	0.00	29.986 
16:50	79.8	79.8	80.7	51	60.0	0	3	90	0.00	29.986 
16:55	80.1	80.1	81.0	51	60.3	0	2	90	0.00	29.986 
17:00	80.5	80.5	81.2	49	59.6	0	1	90	0.00	29.981 
17:05	80.5	80.5	81.2	49	59.6	0	1	90	0.00	29.981 
17:10	80.3	80.3	80.7	46	57.6	0	2	90	0.00	29.981 
17:15	80.3	80.3	80.7	46	57.6	0	2	90	0.00	29.983 
17:20	80.5	80.5	81.0	48	59.0	0	2	90	0.00	29.983 
17:25	80.5	80.5	80.8	46	57.8	0	1	90	0.00	29.983 
17:30	80.5	80.5	80.9	47	58.4	0	2	90	0.00	29.973 
17:35	80.5	80.5	80.9	47	58.4	0	1	90	0.00	29.973 
17:40	80.7	80.7	81.2	48	59.2	0	1	90	0.00	29.973 
17:45	80.3	80.3	81.0	49	59.4	0	2	90	0.00	29.970 
17:50	79.9	79.9	80.5	48	58.4	0	1	90	0.00	29.970 
17:55	79.4	79.4	80.1	48	58.0	0	1	90	0.00	29.970 
18:00	79.2	79.2	80.1	49	58.4	0	1	90	0.00	29.972 
18:05	79.0	79.0	80.0	50	58.7	0	1	90	0.00	29.972 
18:10	79.0	79.0	79.8	48	57.6	0	1	90	0.00	29.972 
18:15	78.6	78.6	79.5	48	57.2	0	2	90	0.00	29.969 
18:20	78.6	78.6	79.5	47	56.7	0	2	90	0.00	29.969 
18:25	78.3	78.3	79.3	47	56.4	0	1	90	0.00	29.969 
18:30	78.3	78.3	79.3	48	57.0	0	2	90	0.00	29.964 
18:35	78.1	78.1	79.2	48	56.8	0	1	90	0.00	29.964 
18:40	77.9	77.9	79.0	47	56.0	0	1	90	0.00	29.964 
18:45	77.9	77.9	79.0	47	56.0	0	1	90	0.00	29.965 
18:50	77.9	77.9	79.1	48	56.6	0	1	90	0.00	29.965 
18:55	77.9	77.9	79.0	46	55.4	0	1	90	0.00	29.965 
19:00	77.9	77.9	79.0	47	56.0	0	2	90	0.00	29.959 
19:05	77.9	77.9	79.0	46	55.4	0	0	---	0.00	29.959 
19:10	77.7	77.7	78.9	47	55.8	0	1	90	0.00	29.959 
19:15	77.7	77.7	78.9	46	55.2	0	1	90	0.00	29.962 
19:20	77.9	77.9	79.0	46	55.4	1	3	90	0.00	29.962 
19:25	77.9	77.9	79.0	47	56.0	0	2	90	0.00	29.962 
19:30	77.7	77.7	78.9	47	55.8	0	1	90	0.00	29.960 
19:35	77.6	77.6	78.8	46	55.2	0	1	90	0.00	29.960 
19:40	77.6	77.6	78.8	46	55.2	0	1	90	0.00	29.960 
19:45	77.4	77.4	78.7	46	55.0	0	0	---	0.00	29.961 
19:50	77.2	77.2	78.6	46	54.8	0	0	---	0.00	29.961 
19:55	77.0	77.0	78.5	46	54.6	0	0	---	0.00	29.961 
20:00	76.8	76.8	78.4	48	55.6	0	0	---	0.00	29.963 
20:05	76.7	76.7	78.4	48	55.5	0	0	---	0.00	29.963 
20:10	76.5	76.5	78.3	49	55.9	0	1	90	0.00	29.963 
20:15	76.5	76.5	78.3	49	55.9	0	1	90	0.00	29.960 
20:20	76.3	76.3	78.2	50	56.3	0	0	---	0.00	29.960 
20:25	76.1	76.1	78.1	50	56.1	0	0	---	0.00	29.960 
20:30	75.8	75.8	78.0	52	56.9	0	0	---	0.00	29.959 
20:35	75.4	75.4	77.8	53	57.1	0	0	---	0.00	29.959 
20:40	74.9	74.9	74.9	53	56.6	0	0	---	0.00	29.959 
20:45	74.6	74.6	74.6	55	57.3	0	0	---	0.00	29.962 
20:50	74.2	74.2	74.2	56	57.5	0	0	---	0.00	29.962 
20:55	73.7	73.7	73.7	57	57.5	0	0	---	0.00	29.962 
21:00	73.2	73.2	73.2	58	57.5	0	0	---	0.00	29.961 
21:05	72.8	72.8	72.8	58	57.1	0	0	---	0.00	29.961 
21:10	72.3	72.3	72.3	59	57.2	0	0	---	0.00	29.961 
21:15	72.0	72.0	72.0	59	56.9	0	0	---	0.00	29.956 
21:20	71.5	71.5	71.5	60	56.9	0	0	---	0.00	29.956 
21:25	70.9	70.9	70.9	61	56.8	0	0	---	0.00	29.956 
21:30	70.6	70.6	70.6	62	56.9	0	0	---	0.00	29.960 
21:35	70.1	70.1	70.1	63	56.9	0	0	---	0.00	29.960 
21:40	69.8	69.8	69.8	64	57.1	0	0	---	0.00	29.960 
21:45	69.4	69.4	69.4	65	57.1	0	0	---	0.00	29.965 
21:50	69.1	69.1	69.1	66	57.3	0	0	---	0.00	29.965 
21:55	68.8	68.8	68.8	67	57.4	0	0	---	0.00	29.965 
22:00	68.4	68.4	68.4	68	57.4	0	0	---	0.00	29.971 
22:05	68.1	68.1	68.1	69	57.5	0	0	---	0.00	29.971 
22:10	67.8	67.8	67.8	70	57.6	0	0	---	0.00	29.971 
22:15	67.6	67.6	67.6	71	57.9	0	0	---	0.00	29.969 
22:20	67.3	67.3	67.3	72	58.0	0	0	---	0.00	29.969 
22:25	67.1	67.1	67.1	73	58.1	0	0	---	0.00	29.969 
22:30	66.8	66.8	66.8	73	57.9	0	0	---	0.00	29.971 
22:35	66.4	66.4	66.4	74	57.9	0	0	---	0.00	29.971 
22:40	66.3	66.3	66.3	75	58.1	0	0	---	0.00	29.971 
22:45	66.1	66.1	66.1	75	57.9	0	0	---	0.00	29.973 
22:50	66.0	66.0	66.0	76	58.2	0	0	---	0.00	29.973 
22:55	65.8	65.8	65.8	77	58.4	0	0	---	0.00	29.973 
23:00	65.6	65.6	65.6	77	58.2	0	0	---	0.00	29.975 
23:05	65.5	65.5	65.5	78	58.5	0	0	---	0.00	29.975 
23:10	65.3	65.3	65.3	79	58.6	0	0	---	0.00	29.975 
23:15	65.2	65.2	65.2	79	58.5	0	0	---	0.00	29.974 
23:20	65.0	65.0	65.0	79	58.3	0	0	---	0.00	29.974 
23:25	64.7	64.7	64.7	80	58.4	0	0	---	0.00	29.974 
23:30	64.5	64.5	64.5	80	58.2	0	0	---	0.00	29.973 
23:35	64.5	64.5	64.5	81	58.5	0	0	---	0.00	29.973 
23:40	64.3	64.3	64.3	81	58.3	0	0	---	0.00	29.973 
23:45	64.2	64.2	64.2	81	58.2	0	0	---	0.00	29.975 
23:50	64.0	64.0	64.0	81	58.0	0	0	---	0.00	29.975 
23:55	63.9	63.9	63.9	82	58.3	0	0	---	0.00	29.975 

CoCoRaHS
IN-AL-39
A2 Web Hosting
Creative Commons License
GoDaddy
search engine by freefind advanced

loaded 2018-11-20 08:41:47 • last modified 2010-11-18 10:43:29
Privacy PolicyDisclaimer
• wx.awcolley.com is powered by PmWiki v.2002016 •
• all content (unless otherwise noted) © 2018 A W Colley